Time;durP1;ratioP1;P1;durP2;ratioP2;P2;SDS_P1;SDS_P2;PMS_P1;PMS_P2;Temp;Humidity;BMP_temperature;BMP_pressure;BME280_temperature;BME280_humidity;BME280_pressure;Samples;Min_cycle;Max_cycle;Signal;HPM_P1;HPM_P2
2021/01/05 02:39:36;;;;;;;22.80;11.53;;;0.60;99.90;;;;;;6208436;23;20020;-95
2021/01/05 02:42:40;;;;;;;22.23;11.27;;;0.60;99.90;;;;;;6216122;23;19997;-94
2021/01/05 02:45:57;;;;;;;;;;;;;;;;;;;;;
2021/01/05 02:49:11;;;;;;;22.30;11.70;;;0.60;99.90;;;;;;6220278;23;19989;-95
2021/01/05 02:52:24;;;;;;;20.77;11.30;;;0.60;99.90;;;;;;6205836;23;19984;-95
2021/01/05 02:55:16;;;;;;;23.80;12.83;;;0.60;99.90;;;;;;6212723;23;19984;-94
2021/01/05 02:58:04;;;;;;;23.77;11.70;;;0.70;99.90;;;;;;6202591;23;19988;-96
2021/01/05 03:00:55;;;;;;;24.23;12.37;;;0.70;99.90;;;;;;6214370;23;19980;-95
2021/01/05 03:03:48;;;;;;;25.03;12.77;;;0.60;99.90;;;;;;6201897;23;20029;-95
2021/01/05 03:06:19;;;;;;;31.55;14.65;;;0.60;99.90;;;;;;6201122;23;20007;-95
2021/01/05 03:09:21;;;;;;;25.03;12.97;;;0.60;99.90;;;;;;6214142;23;19996;-94
2021/01/05 03:12:09;;;;;;;20.10;9.93;;;0.60;99.90;;;;;;6212287;23;20004;-95
2021/01/05 03:14:40;;;;;;;28.67;14.30;;;0.50;99.90;;;;;;6213089;23;19985;-95
2021/01/05 03:17:37;;;;;;;29.10;14.25;;;0.50;99.90;;;;;;6213946;23;19981;-93
2021/01/05 03:20:14;;;;;;;27.70;13.97;;;0.50;99.90;;;;;;6214235;23;19989;-95
2021/01/05 03:23:14;;;;;;;30.43;14.37;;;0.50;99.90;;;;;;6213561;23;19981;-94
2021/01/05 03:25:50;;;;;;;29.03;14.00;;;0.50;99.90;;;;;;6239918;23;19993;-95
2021/01/05 03:28:38;;;;;;;;;;;;;;;;;;;;;
2021/01/05 03:31:30;;;;;;;33.33;14.07;;;0.40;99.90;;;;;;6239029;23;19988;-95
2021/01/05 03:34:11;;;;;;;26.93;13.70;;;0.50;99.90;;;;;;6214750;23;19989;-95
2021/01/05 03:36:40;;;;;;;30.43;14.10;;;0.60;99.90;;;;;;6213980;23;20015;-95
2021/01/05 03:39:14;;;;;;;33.00;15.50;;;0.60;99.90;;;;;;6213608;23;19992;-95
2021/01/05 03:41:45;;;;;;;31.33;15.23;;;0.60;99.90;;;;;;6213121;23;19985;-96
2021/01/05 03:44:14;;;;;;;36.47;16.33;;;0.50;99.90;;;;;;6214202;23;20004;-95
2021/01/05 03:46:43;;;;;;;34.17;16.43;;;0.50;99.90;;;;;;6212928;23;19985;-95
2021/01/05 03:49:14;;;;;;;32.27;15.67;;;0.60;99.90;;;;;;6213622;23;20034;-96
2021/01/05 03:51:49;;;;;;;35.30;16.93;;;0.60;99.90;;;;;;6213134;23;19992;-96
2021/01/05 03:54:18;;;;;;;38.30;17.90;;;0.60;99.90;;;;;;6213257;23;20010;-96
2021/01/05 03:56:46;;;;;;;37.00;17.53;;;0.60;99.90;;;;;;6212463;23;19996;-96
2021/01/05 03:59:20;;;;;;;38.10;18.03;;;0.60;99.90;;;;;;6213298;23;20004;-96
2021/01/05 04:01:54;;;;;;;40.43;18.23;;;0.50;99.90;;;;;;6213340;23;19992;-95
2021/01/05 04:04:20;;;;;;;40.43;18.97;;;0.60;99.90;;;;;;6214545;23;19989;-95
2021/01/05 04:06:49;;;;;;;40.03;18.83;;;0.60;99.90;;;;;;6215464;23;19989;-96
2021/01/05 04:09:41;;;;;;;40.30;18.50;;;0.60;99.90;;;;;;6216112;23;19988;-95
2021/01/05 04:12:10;;;;;;;42.77;19.10;;;0.50;99.90;;;;;;6217175;23;19989;-95
2021/01/05 04:14:35;;;;;;;39.53;19.67;;;0.60;99.90;;;;;;6218841;23;19989;-96
2021/01/05 04:17:12;;;;;;;42.40;19.73;;;0.60;99.90;;;;;;6215903;23;20015;-95
2021/01/05 04:19:44;;;;;;;44.73;20.43;;;0.60;99.90;;;;;;6216256;23;19985;-95
2021/01/05 04:22:19;;;;;;;44.55;19.20;;;0.60;99.90;;;;;;6215224;23;20015;-96
2021/01/05 04:24:50;;;;;;;42.17;19.10;;;0.60;99.90;;;;;;6215957;23;20000;-96
2021/01/05 04:27:29;;;;;;;42.00;19.17;;;0.50;99.90;;;;;;6215616;23;19992;-95
2021/01/05 04:30:00;;;;;;;42.57;20.17;;;0.60;99.90;;;;;;6215736;23;19989;-95
2021/01/05 04:32:29;;;;;;;41.30;19.47;;;0.60;99.90;;;;;;6215707;23;19988;-94
2021/01/05 04:35:06;;;;;;;41.30;19.70;;;0.70;99.90;;;;;;6215691;23;19988;-96
2021/01/05 04:38:03;;;;;;;46.67;19.97;;;0.60;99.90;;;;;;6215485;23;20008;-95
2021/01/05 04:40:40;;;;;;;42.20;19.60;;;0.60;99.90;;;;;;6212824;23;20167;-95
2021/01/05 04:43:13;;;;;;;42.57;20.73;;;0.50;99.90;;;;;;6215390;23;20068;-96
2021/01/05 04:46:10;;;;;;;45.00;20.27;;;0.60;99.90;;;;;;6215594;23;19988;-95
2021/01/05 04:48:52;;;;;;;38.60;19.17;;;0.50;99.90;;;;;;6216068;23;20056;-95
2021/01/05 04:51:45;;;;;;;;;;;;;;;;;;;;;
2021/01/05 04:54:33;;;;;;;37.73;19.10;;;0.60;99.90;;;;;;6242082;23;19993;-96
2021/01/05 04:57:19;;;;;;;39.47;19.83;;;0.60;99.90;;;;;;6215323;23;19984;-95
2021/01/05 05:00:04;;;;;;;39.43;19.43;;;0.60;99.90;;;;;;6215195;23;19985;-95
2021/01/05 05:02:47;;;;;;;44.93;21.33;;;0.60;99.90;;;;;;6215508;23;20015;-94
2021/01/05 05:05:46;;;;;;;38.80;19.10;;;0.60;99.90;;;;;;6216116;23;19993;-95
2021/01/05 05:08:18;;;;;;;43.60;20.57;;;0.60;99.90;;;;;;6214761;23;19985;-95
2021/01/05 05:10:58;;;;;;;29.58;13.90;;;0.70;99.90;;;;;;6214656;23;19984;-95
2021/01/05 05:13:41;;;;;;;41.80;19.80;;;0.70;99.90;;;;;;6215517;23;19989;-96
2021/01/05 05:19:34;;;;;;;42.47;20.27;;;0.60;99.90;;;;;;6180136;23;19990;-95
2021/01/05 05:22:08;;;;;;;41.83;19.17;;;0.60;99.90;;;;;;6208600;23;19985;-95
2021/01/05 05:24:56;;;;;;;42.70;20.10;;;0.60;99.90;;;;;;6214839;23;19984;-95
2021/01/05 05:27:58;;;;;;;46.33;21.40;;;0.60;99.90;;;;;;6215164;23;19984;-96
2021/01/05 05:30:38;;;;;;;31.60;16.05;;;0.60;99.90;;;;;;6177725;23;19996;-95
2021/01/05 05:33:30;;;;;;;36.37;19.13;;;0.70;99.90;;;;;;6214979;23;20019;-96
2021/01/05 05:39:11;;;;;;;32.63;17.87;;;0.70;99.90;;;;;;6234867;23;20017;-94
2021/01/05 12:50:48;;;;;;;31.43;16.50;;;1.80;99.90;;;;;;6197067;23;20071;-91
2021/01/05 12:53:20;;;;;;;30.90;16.57;;;1.80;99.90;;;;;;6227810;22;20014;-93
2021/01/05 12:55:46;;;;;;;29.15;16.05;;;1.80;99.90;;;;;;6205411;23;20458;-94
2021/01/05 12:58:12;;;;;;;31.50;16.87;;;1.70;99.90;;;;;;6187402;23;20554;-91
2021/01/05 13:00:38;;;;;;;31.77;16.70;;;1.80;99.90;;;;;;6233703;22;19989;-94
2021/01/05 13:03:05;;;;;;;30.97;16.10;;;1.70;99.90;;;;;;6239850;22;20013;-94
2021/01/05 13:44:15;;;;;;;41.70;20.03;;;1.70;99.90;;;;;;6193184;23;20020;-89
2021/01/05 13:49:31;;;;;;;37.90;19.30;;;1.70;99.90;;;;;;6223607;23;20011;-88
2021/01/05 14:07:29;;;;;;;27.63;15.33;;;1.70;99.90;;;;;;6179031;23;20002;-94
2021/01/05 14:09:55;;;;;;;29.87;15.73;;;1.80;99.90;;;;;;6182240;23;19985;-94
2021/01/05 14:12:26;;;;;;;25.50;15.03;;;1.80;99.90;;;;;;6192985;23;20019;-93
2021/01/05 14:14:52;;;;;;;30.10;15.83;;;1.80;99.90;;;;;;6196662;23;20100;-92
2021/01/05 15:01:20;;;;;;;30.87;16.97;;;1.70;99.90;;;;;;6186139;23;20009;-96
2021/01/05 15:03:48;;;;;;;32.37;15.77;;;1.70;99.90;;;;;;6204969;23;19985;-94
2021/01/05 15:06:29;;;;;;;30.40;16.47;;;1.70;99.90;;;;;;6208678;23;19989;-95
2021/01/05 15:12:24;;;;;;;31.03;15.37;;;1.80;99.90;;;;;;6176345;23;19994;-95
2021/01/05 15:14:59;;;;;;;30.37;15.67;;;1.70;99.90;;;;;;6200557;23;20130;-96
2021/01/05 15:17:28;;;;;;;30.30;15.43;;;1.70;99.90;;;;;;6213090;23;19985;-96
2021/01/05 15:20:35;;;;;;;29.53;15.43;;;1.70;99.90;;;;;;6215007;23;19985;-96
2021/01/05 16:28:02;;;;;;;28.40;14.93;;;1.70;99.90;;;;;;6173930;23;20010;-94
2021/01/05 16:30:37;;;;;;;27.47;14.77;;;1.70;99.90;;;;;;6174197;23;20017;-95
2021/01/05 17:33:39;;;;;;;24.50;13.53;;;1.70;99.90;;;;;;6233174;23;20009;-93
2021/01/05 17:36:27;;;;;;;26.98;14.65;;;1.70;99.90;;;;;;6214523;23;19989;-93
2021/01/05 17:46:39;;;;;;;22.77;13.53;;;1.70;99.90;;;;;;6178765;23;20037;-90
2021/01/05 18:02:02;;;;;;;23.70;13.30;;;1.60;99.90;;;;;;6186880;23;20065;-95
2021/01/05 18:04:27;;;;;;;22.17;13.00;;;1.60;99.90;;;;;;6177307;23;20012;-94
2021/01/05 18:06:53;;;;;;;31.43;15.60;;;1.70;99.90;;;;;;6178958;23;20028;-93
2021/01/05 18:09:22;;;;;;;23.90;14.03;;;1.70;99.90;;;;;;6178594;23;20277;-95
2021/01/05 18:11:47;;;;;;;26.70;13.67;;;1.70;99.90;;;;;;6185118;23;19998;-93
2021/01/05 20:05:38;;;;;;;33.27;16.30;;;1.60;99.90;;;;;;6207491;23;20093;-94
2021/01/05 20:08:05;;;;;;;33.30;17.00;;;1.60;99.90;;;;;;6182816;23;20008;-92
2021/01/05 20:52:57;;;;;;;41.60;22.03;;;1.50;99.90;;;;;;6225547;22;20043;-91
2021/01/05 20:55:25;;;;;;;55.50;25.80;;;1.50;99.90;;;;;;6237318;22;20030;-92
2021/01/05 20:57:53;;;;;;;56.00;28.17;;;1.50;99.90;;;;;;6236381;22;20061;-90
2021/01/05 21:00:40;;;;;;;37.10;20.60;;;1.50;99.90;;;;;;6211844;22;20003;-94
2021/01/05 21:03:09;;;;;;;35.40;19.00;;;1.50;99.90;;;;;;6214743;23;20016;-92
2021/01/05 21:05:42;;;;;;;34.93;19.00;;;1.50;99.90;;;;;;6240017;22;20019;-91
2021/01/05 21:08:11;;;;;;;37.80;20.20;;;1.50;99.90;;;;;;6214656;22;19996;-93
2021/01/05 21:10:44;;;;;;;39.10;18.93;;;1.50;99.90;;;;;;6214647;22;19996;-93
2021/01/05 21:13:20;;;;;;;38.97;20.40;;;1.50;99.90;;;;;;6240256;22;20003;-92
2021/01/05 21:26:46;;;;;;;;;;;;;;;;;;;;;
2021/01/05 21:36:58;;;;;;;38.33;20.17;;;1.60;99.90;;;;;;6208702;23;20016;-92
2021/01/05 21:39:36;;;;;;;38.30;19.97;;;1.60;99.90;;;;;;6183215;23;20009;-93
